Spring Grove, Pennsylvania
Current Conditions -  °F | °C
As of 1:53 PM on Friday 24 Oct 2014 (Local Time) from KTHV Reporting Station
Clear Clear  
Wind Chill: 65°   Ceiling: Unl
Heat Index: 65°   Visibility: 10mi
Dew Point: 34°   Wind: 10mph
Humidity: 32%   Direction: 300°WNW
Pressure: 29.9"   Gusts: NA
Location:  39.87°N, 76.87°W
Report Text: KTHV 241753Z AUTO 30009KT 10SM CLR 18/01 A2990 RMK AO2 SLP125 T01830011 10194 20106 58016
Loading
Personal Weather Stations






























Interactive Weather Map
Tropical Storm Tracking
New forecast layout! Learn more

10-Day Weather Forecast

Advertisements
Track Severe Weather on mobile